sensor_id;sensor_type;location;lat;lon;timestamp;P1;durP1;ratioP1;P2;durP2;ratioP2
38911;SDS011;28444;48.056;14.408;2024-03-22T00:01:50;13.32;;;8.63;;
38911;SDS011;28444;48.056;14.408;2024-03-22T00:04:18;18.83;;;9.18;;
38911;SDS011;28444;48.056;14.408;2024-03-22T00:06:45;13.45;;;9.55;;
38911;SDS011;28444;48.056;14.408;2024-03-22T00:09:12;14.30;;;9.90;;
38911;SDS011;28444;48.056;14.408;2024-03-22T00:11:41;17.35;;;9.70;;
38911;SDS011;28444;48.056;14.408;2024-03-22T00:14:08;16.23;;;9.48;;
38911;SDS011;28444;48.056;14.408;2024-03-22T00:16:34;20.83;;;10.25;;
38911;SDS011;28444;48.056;14.408;2024-03-22T00:19:00;16.98;;;11.20;;
38911;SDS011;28444;48.056;14.408;2024-03-22T00:21:26;16.55;;;11.13;;
38911;SDS011;28444;48.056;14.408;2024-03-22T00:23:53;16.88;;;11.73;;
38911;SDS011;28444;48.056;14.408;2024-03-22T00:26:19;16.70;;;11.18;;
38911;SDS011;28444;48.056;14.408;2024-03-22T00:28:45;18.48;;;11.98;;
38911;SDS011;28444;48.056;14.408;2024-03-22T00:31:10;15.63;;;11.05;;
38911;SDS011;28444;48.056;14.408;2024-03-22T00:33:36;16.73;;;10.68;;
38911;SDS011;28444;48.056;14.408;2024-03-22T00:36:02;16.73;;;11.25;;
38911;SDS011;28444;48.056;14.408;2024-03-22T00:38:28;15.95;;;11.23;;
38911;SDS011;28444;48.056;14.408;2024-03-22T00:40:53;19.98;;;11.43;;
38911;SDS011;28444;48.056;14.408;2024-03-22T00:43:20;15.80;;;10.38;;
38911;SDS011;28444;48.056;14.408;2024-03-22T00:45:46;20.15;;;12.27;;
38911;SDS011;28444;48.056;14.408;2024-03-22T00:48:12;17.40;;;10.88;;
38911;SDS011;28444;48.056;14.408;2024-03-22T00:50:37;23.30;;;11.70;;
38911;SDS011;28444;48.056;14.408;2024-03-22T00:53:03;16.42;;;10.63;;
38911;SDS011;28444;48.056;14.408;2024-03-22T00:55:30;17.35;;;12.95;;
38911;SDS011;28444;48.056;14.408;2024-03-22T00:57:56;18.45;;;13.05;;
38911;SDS011;28444;48.056;14.408;2024-03-22T01:00:22;15.82;;;11.57;;
38911;SDS011;28444;48.056;14.408;2024-03-22T01:02:49;17.83;;;11.85;;
38911;SDS011;28444;48.056;14.408;2024-03-22T01:05:15;14.98;;;11.32;;
38911;SDS011;28444;48.056;14.408;2024-03-22T01:07:42;19.58;;;12.13;;
38911;SDS011;28444;48.056;14.408;2024-03-22T01:10:07;18.52;;;12.07;;
38911;SDS011;28444;48.056;14.408;2024-03-22T01:12:33;17.45;;;12.02;;
38911;SDS011;28444;48.056;14.408;2024-03-22T01:14:59;20.52;;;12.98;;
38911;SDS011;28444;48.056;14.408;2024-03-22T01:17:25;17.55;;;12.35;;
38911;SDS011;28444;48.056;14.408;2024-03-22T01:19:50;17.52;;;11.80;;
38911;SDS011;28444;48.056;14.408;2024-03-22T01:22:16;19.58;;;13.35;;
38911;SDS011;28444;48.056;14.408;2024-03-22T01:24:43;22.17;;;13.10;;
38911;SDS011;28444;48.056;14.408;2024-03-22T01:27:09;19.20;;;13.40;;
38911;SDS011;28444;48.056;14.408;2024-03-22T01:29:34;25.75;;;14.27;;
38911;SDS011;28444;48.056;14.408;2024-03-22T01:32:01;20.38;;;12.80;;
38911;SDS011;28444;48.056;14.408;2024-03-22T01:34:27;22.77;;;12.25;;
38911;SDS011;28444;48.056;14.408;2024-03-22T01:36:53;18.70;;;13.43;;
38911;SDS011;28444;48.056;14.408;2024-03-22T01:39:19;28.83;;;14.57;;
38911;SDS011;28444;48.056;14.408;2024-03-22T01:41:52;24.48;;;13.05;;
38911;SDS011;28444;48.056;14.408;2024-03-22T01:44:17;20.48;;;13.43;;
38911;SDS011;28444;48.056;14.408;2024-03-22T01:46:44;20.80;;;14.20;;
38911;SDS011;28444;48.056;14.408;2024-03-22T01:49:14;22.27;;;13.35;;
38911;SDS011;28444;48.056;14.408;2024-03-22T01:51:41;21.88;;;13.52;;
38911;SDS011;28444;48.056;14.408;2024-03-22T01:54:11;23.17;;;13.75;;
38911;SDS011;28444;48.056;14.408;2024-03-22T01:56:37;21.90;;;13.85;;
38911;SDS011;28444;48.056;14.408;2024-03-22T01:59:03;19.88;;;12.75;;
38911;SDS011;28444;48.056;14.408;2024-03-22T02:01:29;19.33;;;13.45;;
38911;SDS011;28444;48.056;14.408;2024-03-22T02:03:55;26.33;;;13.27;;
38911;SDS011;28444;48.056;14.408;2024-03-22T02:06:21;24.92;;;15.20;;
38911;SDS011;28444;48.056;14.408;2024-03-22T02:08:47;19.85;;;12.57;;
38911;SDS011;28444;48.056;14.408;2024-03-22T02:11:12;21.70;;;13.05;;
38911;SDS011;28444;48.056;14.408;2024-03-22T02:13:38;27.35;;;14.88;;
38911;SDS011;28444;48.056;14.408;2024-03-22T02:16:04;19.23;;;13.30;;
38911;SDS011;28444;48.056;14.408;2024-03-22T02:18:31;20.98;;;14.32;;
38911;SDS011;28444;48.056;14.408;2024-03-22T02:20:57;20.45;;;13.57;;
38911;SDS011;28444;48.056;14.408;2024-03-22T02:23:35;20.77;;;14.20;;
38911;SDS011;28444;48.056;14.408;2024-03-22T02:26:02;19.70;;;12.35;;
38911;SDS011;28444;48.056;14.408;2024-03-22T02:28:29;20.33;;;13.70;;
38911;SDS011;28444;48.056;14.408;2024-03-22T02:30:57;28.38;;;15.02;;
38911;SDS011;28444;48.056;14.408;2024-03-22T02:33:39;22.67;;;13.95;;
38911;SDS011;28444;48.056;14.408;2024-03-22T02:36:20;25.48;;;13.93;;
38911;SDS011;28444;48.056;14.408;2024-03-22T02:38:52;22.50;;;14.85;;
38911;SDS011;28444;48.056;14.408;2024-03-22T02:41:25;21.55;;;14.13;;
38911;SDS011;28444;48.056;14.408;2024-03-22T02:43:51;23.08;;;14.32;;
38911;SDS011;28444;48.056;14.408;2024-03-22T02:46:16;20.65;;;14.70;;
38911;SDS011;28444;48.056;14.408;2024-03-22T02:48:42;26.23;;;14.48;;
38911;SDS011;28444;48.056;14.408;2024-03-22T02:51:07;20.83;;;13.95;;
38911;SDS011;28444;48.056;14.408;2024-03-22T02:53:33;21.83;;;13.57;;
38911;SDS011;28444;48.056;14.408;2024-03-22T02:55:59;22.10;;;15.32;;
38911;SDS011;28444;48.056;14.408;2024-03-22T02:58:26;26.05;;;15.25;;
38911;SDS011;28444;48.056;14.408;2024-03-22T03:00:52;21.55;;;14.35;;
38911;SDS011;28444;48.056;14.408;2024-03-22T03:03:17;21.33;;;14.45;;
38911;SDS011;28444;48.056;14.408;2024-03-22T03:05:43;25.92;;;15.07;;
38911;SDS011;28444;48.056;14.408;2024-03-22T03:08:09;27.38;;;16.30;;
38911;SDS011;28444;48.056;14.408;2024-03-22T03:10:35;27.70;;;15.93;;
38911;SDS011;28444;48.056;14.408;2024-03-22T03:13:01;23.85;;;14.77;;
38911;SDS011;28444;48.056;14.408;2024-03-22T03:15:27;22.58;;;14.25;;
38911;SDS011;28444;48.056;14.408;2024-03-22T03:17:52;23.83;;;15.48;;
38911;SDS011;28444;48.056;14.408;2024-03-22T03:20:18;25.80;;;15.30;;
38911;SDS011;28444;48.056;14.408;2024-03-22T03:22:43;22.52;;;14.48;;
38911;SDS011;28444;48.056;14.408;2024-03-22T03:25:09;26.38;;;14.57;;
38911;SDS011;28444;48.056;14.408;2024-03-22T03:27:35;25.00;;;14.38;;
38911;SDS011;28444;48.056;14.408;2024-03-22T03:30:01;20.38;;;13.80;;
38911;SDS011;28444;48.056;14.408;2024-03-22T03:32:27;22.35;;;15.05;;
38911;SDS011;28444;48.056;14.408;2024-03-22T03:34:53;25.50;;;15.57;;
38911;SDS011;28444;48.056;14.408;2024-03-22T03:37:19;26.95;;;16.35;;
38911;SDS011;28444;48.056;14.408;2024-03-22T03:39:44;24.17;;;14.77;;
38911;SDS011;28444;48.056;14.408;2024-03-22T03:42:10;23.70;;;15.48;;
38911;SDS011;28444;48.056;14.408;2024-03-22T03:44:36;24.38;;;15.95;;
38911;SDS011;28444;48.056;14.408;2024-03-22T03:47:02;24.20;;;16.63;;
38911;SDS011;28444;48.056;14.408;2024-03-22T03:49:28;25.38;;;16.25;;
38911;SDS011;28444;48.056;14.408;2024-03-22T03:51:53;24.23;;;15.57;;
38911;SDS011;28444;48.056;14.408;2024-03-22T03:54:19;27.23;;;15.75;;
38911;SDS011;28444;48.056;14.408;2024-03-22T03:56:45;23.50;;;15.95;;
38911;SDS011;28444;48.056;14.408;2024-03-22T03:59:10;29.17;;;16.30;;
38911;SDS011;28444;48.056;14.408;2024-03-22T04:01:36;28.98;;;16.50;;
38911;SDS011;28444;48.056;14.408;2024-03-22T04:04:02;23.67;;;15.95;;
38911;SDS011;28444;48.056;14.408;2024-03-22T04:06:28;26.08;;;15.15;;
38911;SDS011;28444;48.056;14.408;2024-03-22T04:08:54;26.42;;;16.60;;
38911;SDS011;28444;48.056;14.408;2024-03-22T04:11:20;23.98;;;13.93;;
38911;SDS011;28444;48.056;14.408;2024-03-22T04:13:46;21.95;;;15.27;;
38911;SDS011;28444;48.056;14.408;2024-03-22T04:16:13;24.83;;;15.70;;
38911;SDS011;28444;48.056;14.408;2024-03-22T04:18:39;25.73;;;16.60;;
38911;SDS011;28444;48.056;14.408;2024-03-22T04:21:04;25.65;;;14.68;;
38911;SDS011;28444;48.056;14.408;2024-03-22T04:23:30;24.95;;;15.13;;
38911;SDS011;28444;48.056;14.408;2024-03-22T04:25:56;29.20;;;16.70;;
38911;SDS011;28444;48.056;14.408;2024-03-22T04:28:24;24.08;;;15.45;;
38911;SDS011;28444;48.056;14.408;2024-03-22T04:31:00;22.58;;;15.23;;
38911;SDS011;28444;48.056;14.408;2024-03-22T04:33:28;26.50;;;16.17;;
38911;SDS011;28444;48.056;14.408;2024-03-22T04:35:55;23.02;;;15.90;;
38911;SDS011;28444;48.056;14.408;2024-03-22T04:38:22;27.45;;;15.40;;
38911;SDS011;28444;48.056;14.408;2024-03-22T04:40:48;25.60;;;15.20;;
38911;SDS011;28444;48.056;14.408;2024-03-22T04:43:14;25.48;;;15.00;;
38911;SDS011;28444;48.056;14.408;2024-03-22T04:45:42;25.15;;;15.73;;
38911;SDS011;28444;48.056;14.408;2024-03-22T04:48:08;27.45;;;16.27;;
38911;SDS011;28444;48.056;14.408;2024-03-22T04:50:34;23.95;;;15.48;;
38911;SDS011;28444;48.056;14.408;2024-03-22T04:53:01;26.88;;;15.55;;
38911;SDS011;28444;48.056;14.408;2024-03-22T04:55:27;31.92;;;17.52;;
38911;SDS011;28444;48.056;14.408;2024-03-22T04:57:52;25.60;;;15.55;;
38911;SDS011;28444;48.056;14.408;2024-03-22T05:00:18;22.02;;;15.02;;
38911;SDS011;28444;48.056;14.408;2024-03-22T05:02:44;26.20;;;15.82;;
38911;SDS011;28444;48.056;14.408;2024-03-22T05:05:11;25.95;;;16.23;;
38911;SDS011;28444;48.056;14.408;2024-03-22T05:07:37;26.40;;;16.67;;
38911;SDS011;28444;48.056;14.408;2024-03-22T05:10:03;36.15;;;17.58;;
38911;SDS011;28444;48.056;14.408;2024-03-22T05:12:32;24.40;;;14.60;;
38911;SDS011;28444;48.056;14.408;2024-03-22T05:14:57;26.65;;;15.57;;
38911;SDS011;28444;48.056;14.408;2024-03-22T05:17:23;28.60;;;15.10;;
38911;SDS011;28444;48.056;14.408;2024-03-22T05:19:48;28.30;;;15.57;;
38911;SDS011;28444;48.056;14.408;2024-03-22T05:22:14;27.92;;;16.15;;
38911;SDS011;28444;48.056;14.408;2024-03-22T05:24:41;147.57;;;28.20;;
38911;SDS011;28444;48.056;14.408;2024-03-22T05:27:06;57.17;;;22.13;;
38911;SDS011;28444;48.056;14.408;2024-03-22T05:29:32;35.33;;;17.20;;
38911;SDS011;28444;48.056;14.408;2024-03-22T05:31:58;30.63;;;17.35;;
38911;SDS011;28444;48.056;14.408;2024-03-22T05:34:23;27.75;;;16.98;;
38911;SDS011;28444;48.056;14.408;2024-03-22T05:36:49;32.45;;;17.33;;
38911;SDS011;28444;48.056;14.408;2024-03-22T05:39:15;34.65;;;17.05;;
38911;SDS011;28444;48.056;14.408;2024-03-22T05:41:40;29.10;;;17.25;;
38911;SDS011;28444;48.056;14.408;2024-03-22T05:44:06;104.85;;;55.10;;
38911;SDS011;28444;48.056;14.408;2024-03-22T05:46:33;149.95;;;106.65;;
38911;SDS011;28444;48.056;14.408;2024-03-22T05:48:59;48.63;;;32.92;;
38911;SDS011;28444;48.056;14.408;2024-03-22T05:51:25;45.92;;;26.08;;
38911;SDS011;28444;48.056;14.408;2024-03-22T05:53:51;32.30;;;18.73;;
38911;SDS011;28444;48.056;14.408;2024-03-22T05:56:17;38.28;;;20.45;;
38911;SDS011;28444;48.056;14.408;2024-03-22T05:58:42;72.45;;;42.75;;
38911;SDS011;28444;48.056;14.408;2024-03-22T06:01:08;42.75;;;21.52;;
38911;SDS011;28444;48.056;14.408;2024-03-22T06:03:34;33.38;;;20.35;;
38911;SDS011;28444;48.056;14.408;2024-03-22T06:05:59;40.45;;;21.25;;
38911;SDS011;28444;48.056;14.408;2024-03-22T06:08:25;33.88;;;18.00;;
38911;SDS011;28444;48.056;14.408;2024-03-22T06:10:57;26.75;;;17.45;;
38911;SDS011;28444;48.056;14.408;2024-03-22T06:13:22;27.05;;;17.40;;
38911;SDS011;28444;48.056;14.408;2024-03-22T06:15:48;33.10;;;17.30;;
38911;SDS011;28444;48.056;14.408;2024-03-22T06:18:17;30.67;;;16.98;;
38911;SDS011;28444;48.056;14.408;2024-03-22T06:20:43;30.23;;;18.80;;
38911;SDS011;28444;48.056;14.408;2024-03-22T06:23:09;28.13;;;16.77;;
38911;SDS011;28444;48.056;14.408;2024-03-22T06:25:35;28.65;;;17.02;;
38911;SDS011;28444;48.056;14.408;2024-03-22T06:28:05;30.38;;;17.60;;
38911;SDS011;28444;48.056;14.408;2024-03-22T06:30:31;29.88;;;17.40;;
38911;SDS011;28444;48.056;14.408;2024-03-22T06:32:56;26.02;;;16.75;;
38911;SDS011;28444;48.056;14.408;2024-03-22T06:35:22;29.25;;;16.25;;
38911;SDS011;28444;48.056;14.408;2024-03-22T06:37:48;28.27;;;17.73;;
38911;SDS011;28444;48.056;14.408;2024-03-22T06:40:14;36.42;;;16.77;;
38911;SDS011;28444;48.056;14.408;2024-03-22T06:42:40;30.45;;;17.05;;
38911;SDS011;28444;48.056;14.408;2024-03-22T06:45:06;27.15;;;16.52;;
38911;SDS011;28444;48.056;14.408;2024-03-22T06:47:32;37.60;;;16.20;;
38911;SDS011;28444;48.056;14.408;2024-03-22T06:49:58;44.13;;;20.13;;
38911;SDS011;28444;48.056;14.408;2024-03-22T06:52:23;135.90;;;74.85;;
38911;SDS011;28444;48.056;14.408;2024-03-22T06:54:49;125.25;;;66.78;;
38911;SDS011;28444;48.056;14.408;2024-03-22T06:57:15;39.58;;;24.38;;
38911;SDS011;28444;48.056;14.408;2024-03-22T06:59:41;32.88;;;19.60;;
38911;SDS011;28444;48.056;14.408;2024-03-22T07:02:06;30.85;;;17.50;;
38911;SDS011;28444;48.056;14.408;2024-03-22T07:04:34;30.45;;;17.55;;
38911;SDS011;28444;48.056;14.408;2024-03-22T07:07:00;25.27;;;16.52;;
38911;SDS011;28444;48.056;14.408;2024-03-22T07:09:26;29.13;;;16.92;;
38911;SDS011;28444;48.056;14.408;2024-03-22T07:11:55;26.58;;;16.10;;
38911;SDS011;28444;48.056;14.408;2024-03-22T07:14:21;27.13;;;16.45;;
38911;SDS011;28444;48.056;14.408;2024-03-22T07:16:50;26.65;;;15.25;;
38911;SDS011;28444;48.056;14.408;2024-03-22T07:19:16;26.08;;;16.92;;
38911;SDS011;28444;48.056;14.408;2024-03-22T07:21:41;31.67;;;18.25;;
38911;SDS011;28444;48.056;14.408;2024-03-22T07:24:07;37.78;;;19.00;;
38911;SDS011;28444;48.056;14.408;2024-03-22T07:26:32;33.75;;;19.45;;
38911;SDS011;28444;48.056;14.408;2024-03-22T07:28:58;31.10;;;17.33;;
38911;SDS011;28444;48.056;14.408;2024-03-22T07:31:24;28.20;;;16.65;;
38911;SDS011;28444;48.056;14.408;2024-03-22T07:33:49;29.33;;;16.15;;
38911;SDS011;28444;48.056;14.408;2024-03-22T07:36:15;25.92;;;16.27;;
38911;SDS011;28444;48.056;14.408;2024-03-22T07:38:42;27.30;;;17.30;;
38911;SDS011;28444;48.056;14.408;2024-03-22T07:41:08;29.48;;;16.38;;
38911;SDS011;28444;48.056;14.408;2024-03-22T07:43:33;27.70;;;16.30;;
38911;SDS011;28444;48.056;14.408;2024-03-22T07:45:59;26.02;;;14.80;;
38911;SDS011;28444;48.056;14.408;2024-03-22T07:48:24;26.13;;;16.50;;
38911;SDS011;28444;48.056;14.408;2024-03-22T07:51:00;26.52;;;16.10;;
38911;SDS011;28444;48.056;14.408;2024-03-22T07:53:26;28.83;;;15.80;;
38911;SDS011;28444;48.056;14.408;2024-03-22T07:55:52;29.73;;;16.27;;
38911;SDS011;28444;48.056;14.408;2024-03-22T07:58:19;31.88;;;16.40;;
38911;SDS011;28444;48.056;14.408;2024-03-22T08:00:45;24.30;;;15.73;;
38911;SDS011;28444;48.056;14.408;2024-03-22T08:03:13;25.20;;;15.85;;
38911;SDS011;28444;48.056;14.408;2024-03-22T08:05:40;29.05;;;16.20;;
38911;SDS011;28444;48.056;14.408;2024-03-22T08:08:06;25.23;;;15.00;;
38911;SDS011;28444;48.056;14.408;2024-03-22T08:10:32;23.85;;;15.45;;
38911;SDS011;28444;48.056;14.408;2024-03-22T08:12:58;31.15;;;16.08;;
38911;SDS011;28444;48.056;14.408;2024-03-22T08:15:25;32.90;;;15.05;;
38911;SDS011;28444;48.056;14.408;2024-03-22T08:17:51;28.75;;;15.93;;
38911;SDS011;28444;48.056;14.408;2024-03-22T08:20:17;24.40;;;14.50;;
38911;SDS011;28444;48.056;14.408;2024-03-22T08:22:43;30.20;;;17.52;;
38911;SDS011;28444;48.056;14.408;2024-03-22T08:25:08;25.95;;;14.55;;
38911;SDS011;28444;48.056;14.408;2024-03-22T08:27:34;22.55;;;15.50;;
38911;SDS011;28444;48.056;14.408;2024-03-22T08:30:00;22.70;;;14.35;;
38911;SDS011;28444;48.056;14.408;2024-03-22T08:32:26;21.90;;;14.55;;
38911;SDS011;28444;48.056;14.408;2024-03-22T08:34:52;22.45;;;14.73;;
38911;SDS011;28444;48.056;14.408;2024-03-22T08:37:18;32.90;;;14.18;;
38911;SDS011;28444;48.056;14.408;2024-03-22T08:39:44;26.38;;;15.95;;
38911;SDS011;28444;48.056;14.408;2024-03-22T08:42:10;25.92;;;14.70;;
38911;SDS011;28444;48.056;14.408;2024-03-22T08:44:35;31.05;;;15.88;;
38911;SDS011;28444;48.056;14.408;2024-03-22T08:47:01;23.00;;;13.95;;
38911;SDS011;28444;48.056;14.408;2024-03-22T08:49:27;26.17;;;15.80;;
38911;SDS011;28444;48.056;14.408;2024-03-22T08:51:55;26.35;;;15.23;;
38911;SDS011;28444;48.056;14.408;2024-03-22T08:54:21;30.67;;;16.13;;
38911;SDS011;28444;48.056;14.408;2024-03-22T08:56:47;28.60;;;16.52;;
38911;SDS011;28444;48.056;14.408;2024-03-22T08:59:12;24.75;;;15.15;;
38911;SDS011;28444;48.056;14.408;2024-03-22T09:01:38;30.42;;;15.68;;
38911;SDS011;28444;48.056;14.408;2024-03-22T09:04:04;28.30;;;16.40;;
38911;SDS011;28444;48.056;14.408;2024-03-22T09:06:29;28.02;;;15.38;;
38911;SDS011;28444;48.056;14.408;2024-03-22T09:08:56;25.05;;;16.73;;
38911;SDS011;28444;48.056;14.408;2024-03-22T09:11:23;28.92;;;17.38;;
38911;SDS011;28444;48.056;14.408;2024-03-22T09:13:53;32.13;;;17.60;;
38911;SDS011;28444;48.056;14.408;2024-03-22T09:16:23;29.00;;;17.02;;
38911;SDS011;28444;48.056;14.408;2024-03-22T09:18:49;24.00;;;14.85;;
38911;SDS011;28444;48.056;14.408;2024-03-22T09:21:14;21.35;;;13.55;;
38911;SDS011;28444;48.056;14.408;2024-03-22T09:23:40;25.23;;;14.10;;
38911;SDS011;28444;48.056;14.408;2024-03-22T09:26:06;26.35;;;16.65;;
38911;SDS011;28444;48.056;14.408;2024-03-22T09:28:31;24.02;;;15.73;;
38911;SDS011;28444;48.056;14.408;2024-03-22T09:30:57;25.30;;;14.95;;
38911;SDS011;28444;48.056;14.408;2024-03-22T09:33:23;28.00;;;17.25;;
38911;SDS011;28444;48.056;14.408;2024-03-22T09:35:48;28.17;;;17.00;;
38911;SDS011;28444;48.056;14.408;2024-03-22T09:38:14;24.63;;;14.73;;
38911;SDS011;28444;48.056;14.408;2024-03-22T09:40:43;26.55;;;14.57;;
38911;SDS011;28444;48.056;14.408;2024-03-22T09:43:09;22.70;;;13.68;;
38911;SDS011;28444;48.056;14.408;2024-03-22T09:45:40;32.20;;;13.88;;
38911;SDS011;28444;48.056;14.408;2024-03-22T09:48:08;23.63;;;14.63;;
38911;SDS011;28444;48.056;14.408;2024-03-22T09:50:33;19.10;;;12.45;;
38911;SDS011;28444;48.056;14.408;2024-03-22T09:53:00;24.02;;;13.63;;
38911;SDS011;28444;48.056;14.408;2024-03-22T09:55:28;24.10;;;13.25;;
38911;SDS011;28444;48.056;14.408;2024-03-22T09:57:55;20.33;;;12.75;;
38911;SDS011;28444;48.056;14.408;2024-03-22T10:00:21;24.95;;;13.80;;
38911;SDS011;28444;48.056;14.408;2024-03-22T10:02:51;17.17;;;11.40;;
38911;SDS011;28444;48.056;14.408;2024-03-22T10:05:18;21.50;;;11.77;;
38911;SDS011;28444;48.056;14.408;2024-03-22T10:07:45;19.08;;;11.00;;
38911;SDS011;28444;48.056;14.408;2024-03-22T10:10:10;18.70;;;11.93;;
38911;SDS011;28444;48.056;14.408;2024-03-22T10:12:37;19.42;;;11.05;;
38911;SDS011;28444;48.056;14.408;2024-03-22T10:15:04;21.35;;;12.18;;
38911;SDS011;28444;48.056;14.408;2024-03-22T10:17:34;23.25;;;14.07;;
38911;SDS011;28444;48.056;14.408;2024-03-22T10:19:59;27.00;;;12.50;;
38911;SDS011;28444;48.056;14.408;2024-03-22T10:22:25;19.90;;;12.15;;
38911;SDS011;28444;48.056;14.408;2024-03-22T10:24:51;21.05;;;12.63;;
38911;SDS011;28444;48.056;14.408;2024-03-22T10:27:17;20.38;;;10.75;;
38911;SDS011;28444;48.056;14.408;2024-03-22T10:29:44;23.25;;;11.48;;
38911;SDS011;28444;48.056;14.408;2024-03-22T10:32:10;18.75;;;11.15;;
38911;SDS011;28444;48.056;14.408;2024-03-22T10:34:37;17.92;;;10.45;;
38911;SDS011;28444;48.056;14.408;2024-03-22T10:37:04;19.45;;;10.43;;
38911;SDS011;28444;48.056;14.408;2024-03-22T10:39:33;20.17;;;11.10;;
38911;SDS011;28444;48.056;14.408;2024-03-22T10:41:59;22.25;;;10.82;;
38911;SDS011;28444;48.056;14.408;2024-03-22T10:44:25;19.13;;;11.02;;
38911;SDS011;28444;48.056;14.408;2024-03-22T10:46:50;18.40;;;10.27;;
38911;SDS011;28444;48.056;14.408;2024-03-22T10:49:21;16.20;;;9.65;;
38911;SDS011;28444;48.056;14.408;2024-03-22T10:51:54;13.25;;;9.70;;
38911;SDS011;28444;48.056;14.408;2024-03-22T10:54:38;14.07;;;9.32;;
38911;SDS011;28444;48.056;14.408;2024-03-22T10:57:06;14.65;;;9.07;;
38911;SDS011;28444;48.056;14.408;2024-03-22T10:59:37;19.95;;;10.07;;
38911;SDS011;28444;48.056;14.408;2024-03-22T11:02:03;15.57;;;10.20;;
38911;SDS011;28444;48.056;14.408;2024-03-22T11:04:30;16.23;;;9.82;;
38911;SDS011;28444;48.056;14.408;2024-03-22T11:06:56;17.58;;;10.02;;
38911;SDS011;28444;48.056;14.408;2024-03-22T11:09:25;16.40;;;10.57;;
38911;SDS011;28444;48.056;14.408;2024-03-22T11:11:52;16.00;;;10.23;;
38911;SDS011;28444;48.056;14.408;2024-03-22T11:14:19;15.70;;;9.70;;
38911;SDS011;28444;48.056;14.408;2024-03-22T11:16:51;19.67;;;11.02;;
38911;SDS011;28444;48.056;14.408;2024-03-22T11:19:20;16.08;;;10.18;;
38911;SDS011;28444;48.056;14.408;2024-03-22T11:21:46;19.40;;;10.13;;
38911;SDS011;28444;48.056;14.408;2024-03-22T11:24:12;14.75;;;9.50;;
38911;SDS011;28444;48.056;14.408;2024-03-22T11:26:37;14.63;;;10.18;;
38911;SDS011;28444;48.056;14.408;2024-03-22T11:29:03;15.07;;;9.73;;
38911;SDS011;28444;48.056;14.408;2024-03-22T11:31:29;17.88;;;10.23;;
38911;SDS011;28444;48.056;14.408;2024-03-22T11:33:55;15.90;;;9.77;;
38911;SDS011;28444;48.056;14.408;2024-03-22T11:36:24;19.63;;;10.32;;
38911;SDS011;28444;48.056;14.408;2024-03-22T11:38:50;19.30;;;10.60;;
38911;SDS011;28444;48.056;14.408;2024-03-22T11:41:18;16.98;;;11.85;;
38911;SDS011;28444;48.056;14.408;2024-03-22T11:43:47;15.45;;;10.18;;
38911;SDS011;28444;48.056;14.408;2024-03-22T11:46:14;20.80;;;10.27;;
38911;SDS011;28444;48.056;14.408;2024-03-22T11:48:41;15.43;;;10.32;;
38911;SDS011;28444;48.056;14.408;2024-03-22T11:51:07;15.45;;;10.73;;
38911;SDS011;28444;48.056;14.408;2024-03-22T11:53:34;15.27;;;10.77;;
38911;SDS011;28444;48.056;14.408;2024-03-22T11:56:01;17.05;;;11.07;;
38911;SDS011;28444;48.056;14.408;2024-03-22T11:58:29;18.05;;;10.77;;
38911;SDS011;28444;48.056;14.408;2024-03-22T12:00:58;17.80;;;11.20;;
38911;SDS011;28444;48.056;14.408;2024-03-22T12:03:24;18.95;;;10.32;;
38911;SDS011;28444;48.056;14.408;2024-03-22T12:05:52;14.02;;;10.57;;
38911;SDS011;28444;48.056;14.408;2024-03-22T12:08:19;19.42;;;11.88;;
38911;SDS011;28444;48.056;14.408;2024-03-22T12:10:45;16.40;;;10.05;;
38911;SDS011;28444;48.056;14.408;2024-03-22T12:13:11;15.77;;;10.02;;
38911;SDS011;28444;48.056;14.408;2024-03-22T12:15:37;16.73;;;11.35;;
38911;SDS011;28444;48.056;14.408;2024-03-22T12:18:02;15.20;;;10.18;;
38911;SDS011;28444;48.056;14.408;2024-03-22T12:20:28;15.93;;;10.35;;
38911;SDS011;28444;48.056;14.408;2024-03-22T12:22:55;19.02;;;10.88;;
38911;SDS011;28444;48.056;14.408;2024-03-22T12:25:20;16.50;;;10.32;;
38911;SDS011;28444;48.056;14.408;2024-03-22T12:27:46;16.25;;;9.90;;
38911;SDS011;28444;48.056;14.408;2024-03-22T12:30:12;17.77;;;10.77;;
38911;SDS011;28444;48.056;14.408;2024-03-22T12:32:38;14.68;;;10.75;;
38911;SDS011;28444;48.056;14.408;2024-03-22T12:35:04;13.23;;;9.57;;
38911;SDS011;28444;48.056;14.408;2024-03-22T12:37:30;20.92;;;11.43;;
38911;SDS011;28444;48.056;14.408;2024-03-22T12:39:56;13.38;;;9.75;;
38911;SDS011;28444;48.056;14.408;2024-03-22T12:42:22;15.57;;;10.98;;
38911;SDS011;28444;48.056;14.408;2024-03-22T12:44:48;18.60;;;11.13;;
38911;SDS011;28444;48.056;14.408;2024-03-22T12:47:13;13.85;;;9.75;;
38911;SDS011;28444;48.056;14.408;2024-03-22T12:49:39;12.88;;;8.48;;
38911;SDS011;28444;48.056;14.408;2024-03-22T12:52:05;16.90;;;10.65;;
38911;SDS011;28444;48.056;14.408;2024-03-22T12:54:32;16.65;;;9.45;;
38911;SDS011;28444;48.056;14.408;2024-03-22T12:56:57;16.17;;;9.95;;
38911;SDS011;28444;48.056;14.408;2024-03-22T12:59:23;18.13;;;11.23;;
38911;SDS011;28444;48.056;14.408;2024-03-22T13:01:49;17.17;;;9.95;;
38911;SDS011;28444;48.056;14.408;2024-03-22T13:04:14;18.52;;;10.55;;
38911;SDS011;28444;48.056;14.408;2024-03-22T13:06:40;19.50;;;9.48;;
38911;SDS011;28444;48.056;14.408;2024-03-22T13:09:06;16.13;;;9.95;;
38911;SDS011;28444;48.056;14.408;2024-03-22T13:11:35;16.40;;;9.13;;
38911;SDS011;28444;48.056;14.408;2024-03-22T13:14:02;15.93;;;9.55;;
38911;SDS011;28444;48.056;14.408;2024-03-22T13:16:28;15.88;;;9.60;;
38911;SDS011;28444;48.056;14.408;2024-03-22T13:18:53;13.20;;;9.20;;
38911;SDS011;28444;48.056;14.408;2024-03-22T13:21:19;13.32;;;8.23;;
38911;SDS011;28444;48.056;14.408;2024-03-22T13:23:45;20.83;;;8.32;;
38911;SDS011;28444;48.056;14.408;2024-03-22T13:26:10;12.00;;;8.45;;
38911;SDS011;28444;48.056;14.408;2024-03-22T13:28:36;15.40;;;7.80;;
38911;SDS011;28444;48.056;14.408;2024-03-22T13:31:02;9.98;;;7.65;;
38911;SDS011;28444;48.056;14.408;2024-03-22T13:33:31;14.15;;;8.65;;
38911;SDS011;28444;48.056;14.408;2024-03-22T13:35:59;12.02;;;7.22;;
38911;SDS011;28444;48.056;14.408;2024-03-22T13:38:26;11.18;;;7.78;;
38911;SDS011;28444;48.056;14.408;2024-03-22T13:40:58;16.80;;;7.07;;
38911;SDS011;28444;48.056;14.408;2024-03-22T13:43:26;14.65;;;7.88;;
38911;SDS011;28444;48.056;14.408;2024-03-22T13:45:52;12.15;;;7.43;;
38911;SDS011;28444;48.056;14.408;2024-03-22T13:48:20;13.75;;;7.03;;
38911;SDS011;28444;48.056;14.408;2024-03-22T13:50:52;13.32;;;6.60;;
38911;SDS011;28444;48.056;14.408;2024-03-22T13:53:19;9.25;;;6.63;;
38911;SDS011;28444;48.056;14.408;2024-03-22T13:55:49;11.98;;;6.55;;
38911;SDS011;28444;48.056;14.408;2024-03-22T13:58:15;9.25;;;6.53;;
38911;SDS011;28444;48.056;14.408;2024-03-22T14:00:41;13.48;;;6.85;;
38911;SDS011;28444;48.056;14.408;2024-03-22T14:03:07;10.32;;;6.70;;
38911;SDS011;28444;48.056;14.408;2024-03-22T14:05:34;10.60;;;6.70;;
38911;SDS011;28444;48.056;14.408;2024-03-22T14:08:00;13.02;;;7.30;;